sensor_id;sensor_type;location;lat;lon;timestamp;temperature;humidity
46490;DHT22;32204;49.160;8.580;2024-03-02T00:00:37;6.40;40.00
46490;DHT22;32204;49.160;8.580;2024-03-02T00:03:04;6.40;62.50
46490;DHT22;32204;49.160;8.580;2024-03-02T00:05:29;6.50;99.90
46490;DHT22;32204;49.160;8.580;2024-03-02T00:07:58;6.50;99.90
46490;DHT22;32204;49.160;8.580;2024-03-02T00:10:39;6.40;48.70
46490;DHT22;32204;49.160;8.580;2024-03-02T00:13:08;6.50;99.90
46490;DHT22;32204;49.160;8.580;2024-03-02T00:15:48;6.40;99.90
46490;DHT22;32204;49.160;8.580;2024-03-02T00:18:19;6.20;37.50
46490;DHT22;32204;49.160;8.580;2024-03-02T00:20:45;6.20;99.90
46490;DHT22;32204;49.160;8.580;2024-03-02T00:23:16;6.20;99.90
46490;DHT22;32204;49.160;8.580;2024-03-02T00:25:44;6.40;99.90
46490;DHT22;32204;49.160;8.580;2024-03-02T00:28:19;6.50;70.10
46490;DHT22;32204;49.160;8.580;2024-03-02T00:33:20;6.60;1.00
46490;DHT22;32204;49.160;8.580;2024-03-02T00:35:46;6.60;99.90
46490;DHT22;32204;49.160;8.580;2024-03-02T00:38:13;6.60;99.90
46490;DHT22;32204;49.160;8.580;2024-03-02T00:40:41;6.60;99.90
46490;DHT22;32204;49.160;8.580;2024-03-02T00:43:38;6.60;19.20
46490;DHT22;32204;49.160;8.580;2024-03-02T00:45:57;6.50;1.00
46490;DHT22;32204;49.160;8.580;2024-03-02T00:48:23;6.60;99.90
46490;DHT22;32204;49.160;8.580;2024-03-02T00:50:57;6.50;1.50
46490;DHT22;32204;49.160;8.580;2024-03-02T00:53:24;6.50;5.00
46490;DHT22;32204;49.160;8.580;2024-03-02T00:55:51;6.60;1.00
46490;DHT22;32204;49.160;8.580;2024-03-02T00:58:17;6.60;99.90
46490;DHT22;32204;49.160;8.580;2024-03-02T01:00:43;6.50;63.20
46490;DHT22;32204;49.160;8.580;2024-03-02T01:03:08;6.50;99.90
46490;DHT22;32204;49.160;8.580;2024-03-02T01:05:36;6.30;99.90
46490;DHT22;32204;49.160;8.580;2024-03-02T01:08:02;6.10;59.10
46490;DHT22;32204;49.160;8.580;2024-03-02T01:10:28;6.10;99.90
46490;DHT22;32204;49.160;8.580;2024-03-02T01:12:53;5.90;58.00
46490;DHT22;32204;49.160;8.580;2024-03-02T01:15:19;5.80;99.90
46490;DHT22;32204;49.160;8.580;2024-03-02T01:17:45;5.90;45.80
46490;DHT22;32204;49.160;8.580;2024-03-02T01:20:11;5.90;1.00
46490;DHT22;32204;49.160;8.580;2024-03-02T01:22:36;6.00;1.00
46490;DHT22;32204;49.160;8.580;2024-03-02T01:25:03;5.90;99.90
46490;DHT22;32204;49.160;8.580;2024-03-02T01:27:29;5.90;99.90
46490;DHT22;32204;49.160;8.580;2024-03-02T01:29:54;6.00;1.00
46490;DHT22;32204;49.160;8.580;2024-03-02T01:32:20;6.00;99.90
46490;DHT22;32204;49.160;8.580;2024-03-02T01:34:46;6.00;99.90
46490;DHT22;32204;49.160;8.580;2024-03-02T01:37:11;6.00;99.90
46490;DHT22;32204;49.160;8.580;2024-03-02T01:39:37;5.90;99.90
46490;DHT22;32204;49.160;8.580;2024-03-02T01:42:03;5.80;99.90
46490;DHT22;32204;49.160;8.580;2024-03-02T01:44:28;5.90;1.00
46490;DHT22;32204;49.160;8.580;2024-03-02T01:46:54;5.80;99.90
46490;DHT22;32204;49.160;8.580;2024-03-02T01:49:20;5.90;99.90
46490;DHT22;32204;49.160;8.580;2024-03-02T01:51:45;5.80;1.00
46490;DHT22;32204;49.160;8.580;2024-03-02T01:54:11;5.80;99.90
46490;DHT22;32204;49.160;8.580;2024-03-02T01:56:37;5.70;99.90
46490;DHT22;32204;49.160;8.580;2024-03-02T01:59:02;5.70;42.60
46490;DHT22;32204;49.160;8.580;2024-03-02T02:01:29;5.70;1.00
46490;DHT22;32204;49.160;8.580;2024-03-02T02:03:55;5.80;48.80
46490;DHT22;32204;49.160;8.580;2024-03-02T02:06:20;5.80;1.00
46490;DHT22;32204;49.160;8.580;2024-03-02T02:08:46;5.90;1.00
46490;DHT22;32204;49.160;8.580;2024-03-02T02:11:15;5.90;99.90
46490;DHT22;32204;49.160;8.580;2024-03-02T02:13:41;6.00;99.90
46490;DHT22;32204;49.160;8.580;2024-03-02T02:16:07;5.90;1.00
46490;DHT22;32204;49.160;8.580;2024-03-02T02:18:33;5.80;99.90
46490;DHT22;32204;49.160;8.580;2024-03-02T02:20:59;5.70;1.00
46490;DHT22;32204;49.160;8.580;2024-03-02T02:23:24;5.60;1.00
46490;DHT22;32204;49.160;8.580;2024-03-02T02:25:50;5.60;1.00
46490;DHT22;32204;49.160;8.580;2024-03-02T02:28:16;5.60;94.30
46490;DHT22;32204;49.160;8.580;2024-03-02T02:30:42;5.60;1.00
46490;DHT22;32204;49.160;8.580;2024-03-02T02:33:08;5.60;1.00
46490;DHT22;32204;49.160;8.580;2024-03-02T02:35:34;5.50;10.90
46490;DHT22;32204;49.160;8.580;2024-03-02T02:38:00;5.50;12.90
46490;DHT22;32204;49.160;8.580;2024-03-02T02:40:26;5.40;16.50
46490;DHT22;32204;49.160;8.580;2024-03-02T02:42:52;5.40;99.90
46490;DHT22;32204;49.160;8.580;2024-03-02T02:45:18;5.30;99.90
46490;DHT22;32204;49.160;8.580;2024-03-02T02:47:44;5.30;99.90
46490;DHT22;32204;49.160;8.580;2024-03-02T02:50:11;5.40;99.90
46490;DHT22;32204;49.160;8.580;2024-03-02T02:52:39;5.40;99.90
46490;DHT22;32204;49.160;8.580;2024-03-02T02:55:08;5.30;99.90
46490;DHT22;32204;49.160;8.580;2024-03-02T02:57:35;5.30;99.90
46490;DHT22;32204;49.160;8.580;2024-03-02T03:00:12;5.30;99.90
46490;DHT22;32204;49.160;8.580;2024-03-02T03:02:42;5.30;99.90
46490;DHT22;32204;49.160;8.580;2024-03-02T03:05:09;5.30;90.40
46490;DHT22;32204;49.160;8.580;2024-03-02T03:07:35;5.30;99.50
46490;DHT22;32204;49.160;8.580;2024-03-02T03:10:02;5.40;99.90
46490;DHT22;32204;49.160;8.580;2024-03-02T03:12:30;5.40;1.00
46490;DHT22;32204;49.160;8.580;2024-03-02T03:14:56;5.40;1.00
46490;DHT22;32204;49.160;8.580;2024-03-02T03:17:22;5.50;99.90
46490;DHT22;32204;49.160;8.580;2024-03-02T03:19:49;5.60;99.90
46490;DHT22;32204;49.160;8.580;2024-03-02T03:22:15;5.60;99.90
46490;DHT22;32204;49.160;8.580;2024-03-02T03:24:41;5.50;99.90
46490;DHT22;32204;49.160;8.580;2024-03-02T03:27:06;5.50;99.90
46490;DHT22;32204;49.160;8.580;2024-03-02T03:29:32;5.60;1.00
46490;DHT22;32204;49.160;8.580;2024-03-02T03:31:57;5.60;1.00
46490;DHT22;32204;49.160;8.580;2024-03-02T03:34:23;5.60;99.90
46490;DHT22;32204;49.160;8.580;2024-03-02T03:36:49;5.40;99.90
46490;DHT22;32204;49.160;8.580;2024-03-02T03:39:14;5.30;58.90
46490;DHT22;32204;49.160;8.580;2024-03-02T03:41:43;5.30;99.90
46490;DHT22;32204;49.160;8.580;2024-03-02T03:44:08;5.30;99.90
46490;DHT22;32204;49.160;8.580;2024-03-02T03:46:34;5.30;1.00
46490;DHT22;32204;49.160;8.580;2024-03-02T03:48:59;5.30;1.00
46490;DHT22;32204;49.160;8.580;2024-03-02T03:51:25;5.30;1.00
46490;DHT22;32204;49.160;8.580;2024-03-02T03:53:50;5.30;99.90
46490;DHT22;32204;49.160;8.580;2024-03-02T03:56:16;5.40;99.90
46490;DHT22;32204;49.160;8.580;2024-03-02T03:58:42;5.50;1.00
46490;DHT22;32204;49.160;8.580;2024-03-02T04:01:07;5.40;1.00
46490;DHT22;32204;49.160;8.580;2024-03-02T04:03:33;5.50;99.90
46490;DHT22;32204;49.160;8.580;2024-03-02T04:05:59;5.50;99.90
46490;DHT22;32204;49.160;8.580;2024-03-02T04:08:24;5.60;99.90
46490;DHT22;32204;49.160;8.580;2024-03-02T04:10:50;5.50;1.00
46490;DHT22;32204;49.160;8.580;2024-03-02T04:13:15;5.40;50.90
46490;DHT22;32204;49.160;8.580;2024-03-02T04:15:41;5.10;99.90
46490;DHT22;32204;49.160;8.580;2024-03-02T04:18:07;4.90;1.00
46490;DHT22;32204;49.160;8.580;2024-03-02T04:20:32;4.90;99.90
46490;DHT22;32204;49.160;8.580;2024-03-02T04:22:58;5.00;99.90
46490;DHT22;32204;49.160;8.580;2024-03-02T04:25:23;5.10;97.50
46490;DHT22;32204;49.160;8.580;2024-03-02T04:27:49;5.20;94.40
46490;DHT22;32204;49.160;8.580;2024-03-02T04:30:14;5.20;1.00
46490;DHT22;32204;49.160;8.580;2024-03-02T04:32:40;5.20;1.00
46490;DHT22;32204;49.160;8.580;2024-03-02T04:35:06;5.30;1.00
46490;DHT22;32204;49.160;8.580;2024-03-02T04:37:35;5.30;99.90
46490;DHT22;32204;49.160;8.580;2024-03-02T04:40:01;5.30;99.90
46490;DHT22;32204;49.160;8.580;2024-03-02T04:42:26;5.10;99.90
46490;DHT22;32204;49.160;8.580;2024-03-02T04:44:52;4.90;1.00
46490;DHT22;32204;49.160;8.580;2024-03-02T04:47:17;4.90;81.30
46490;DHT22;32204;49.160;8.580;2024-03-02T04:49:43;5.00;99.90
46490;DHT22;32204;49.160;8.580;2024-03-02T04:52:09;5.10;99.90
46490;DHT22;32204;49.160;8.580;2024-03-02T04:54:34;5.10;1.00
46490;DHT22;32204;49.160;8.580;2024-03-02T04:57:20;5.10;32.20
46490;DHT22;32204;49.160;8.580;2024-03-02T04:59:46;5.20;1.00
46490;DHT22;32204;49.160;8.580;2024-03-02T05:02:11;5.30;1.00
46490;DHT22;32204;49.160;8.580;2024-03-02T05:04:39;5.20;1.00
46490;DHT22;32204;49.160;8.580;2024-03-02T05:07:05;5.10;99.90
46490;DHT22;32204;49.160;8.580;2024-03-02T05:09:31;5.00;99.90
46490;DHT22;32204;49.160;8.580;2024-03-02T05:11:56;5.10;1.00
46490;DHT22;32204;49.160;8.580;2024-03-02T05:14:42;5.00;99.90
46490;DHT22;32204;49.160;8.580;2024-03-02T05:17:08;4.90;99.90
46490;DHT22;32204;49.160;8.580;2024-03-02T05:19:34;4.90;99.90
46490;DHT22;32204;49.160;8.580;2024-03-02T05:21:59;4.90;99.90
46490;DHT22;32204;49.160;8.580;2024-03-02T05:24:25;4.90;99.90
46490;DHT22;32204;49.160;8.580;2024-03-02T05:26:54;4.90;99.90
46490;DHT22;32204;49.160;8.580;2024-03-02T05:29:20;4.70;1.00
46490;DHT22;32204;49.160;8.580;2024-03-02T05:31:46;4.70;99.90
46490;DHT22;32204;49.160;8.580;2024-03-02T05:34:11;4.80;99.90
46490;DHT22;32204;49.160;8.580;2024-03-02T05:36:37;4.80;1.00
46490;DHT22;32204;49.160;8.580;2024-03-02T05:39:04;4.70;99.90
46490;DHT22;32204;49.160;8.580;2024-03-02T05:41:32;4.80;1.00
46490;DHT22;32204;49.160;8.580;2024-03-02T05:43:57;4.70;99.90
46490;DHT22;32204;49.160;8.580;2024-03-02T05:46:23;4.70;99.90
46490;DHT22;32204;49.160;8.580;2024-03-02T05:48:49;4.70;99.90
46490;DHT22;32204;49.160;8.580;2024-03-02T05:51:14;4.80;10.50
46490;DHT22;32204;49.160;8.580;2024-03-02T05:53:40;4.70;99.90
46490;DHT22;32204;49.160;8.580;2024-03-02T05:56:06;4.80;99.90
46490;DHT22;32204;49.160;8.580;2024-03-02T05:58:32;4.80;1.00
46490;DHT22;32204;49.160;8.580;2024-03-02T06:01:16;4.80;99.90
46490;DHT22;32204;49.160;8.580;2024-03-02T06:03:43;4.80;30.80
46490;DHT22;32204;49.160;8.580;2024-03-02T06:06:09;4.70;99.90
46490;DHT22;32204;49.160;8.580;2024-03-02T06:08:34;4.70;99.90
46490;DHT22;32204;49.160;8.580;2024-03-02T06:11:00;4.80;99.90
46490;DHT22;32204;49.160;8.580;2024-03-02T06:13:26;4.70;99.90
46490;DHT22;32204;49.160;8.580;2024-03-02T06:15:52;4.60;8.50
46490;DHT22;32204;49.160;8.580;2024-03-02T06:18:18;4.60;99.90
46490;DHT22;32204;49.160;8.580;2024-03-02T06:20:43;4.60;99.90
46490;DHT22;32204;49.160;8.580;2024-03-02T06:23:09;4.50;99.90
46490;DHT22;32204;49.160;8.580;2024-03-02T06:25:35;4.40;99.90
46490;DHT22;32204;49.160;8.580;2024-03-02T06:28:01;4.40;1.00
46490;DHT22;32204;49.160;8.580;2024-03-02T06:30:27;4.40;1.00
46490;DHT22;32204;49.160;8.580;2024-03-02T06:32:52;4.40;1.00
46490;DHT22;32204;49.160;8.580;2024-03-02T06:35:18;4.40;1.00
46490;DHT22;32204;49.160;8.580;2024-03-02T06:37:43;4.40;1.00
46490;DHT22;32204;49.160;8.580;2024-03-02T06:40:09;4.40;2.60
46490;DHT22;32204;49.160;8.580;2024-03-02T06:42:35;4.50;28.60
46490;DHT22;32204;49.160;8.580;2024-03-02T06:45:02;4.60;1.00
46490;DHT22;32204;49.160;8.580;2024-03-02T06:47:28;4.80;1.00
46490;DHT22;32204;49.160;8.580;2024-03-02T06:49:53;4.70;99.90
46490;DHT22;32204;49.160;8.580;2024-03-02T06:52:19;4.70;99.90
46490;DHT22;32204;49.160;8.580;2024-03-02T06:54:46;4.80;1.00
46490;DHT22;32204;49.160;8.580;2024-03-02T06:57:12;4.80;1.00
46490;DHT22;32204;49.160;8.580;2024-03-02T06:59:37;4.90;1.00
46490;DHT22;32204;49.160;8.580;2024-03-02T07:02:03;4.90;99.90
46490;DHT22;32204;49.160;8.580;2024-03-02T07:04:28;5.00;99.90
46490;DHT22;32204;49.160;8.580;2024-03-02T07:06:54;5.00;1.00
46490;DHT22;32204;49.160;8.580;2024-03-02T07:09:20;5.00;1.00
46490;DHT22;32204;49.160;8.580;2024-03-02T07:11:48;5.10;99.90
46490;DHT22;32204;49.160;8.580;2024-03-02T07:14:14;5.20;99.90
46490;DHT22;32204;49.160;8.580;2024-03-02T07:16:40;5.30;6.20
46490;DHT22;32204;49.160;8.580;2024-03-02T07:19:06;5.30;99.90
46490;DHT22;32204;49.160;8.580;2024-03-02T07:21:32;5.30;99.90
46490;DHT22;32204;49.160;8.580;2024-03-02T07:23:58;5.30;1.00
46490;DHT22;32204;49.160;8.580;2024-03-02T07:26:25;5.10;1.00
46490;DHT22;32204;49.160;8.580;2024-03-02T07:28:51;5.10;26.20
46490;DHT22;32204;49.160;8.580;2024-03-02T07:31:17;5.20;1.00
46490;DHT22;32204;49.160;8.580;2024-03-02T07:33:45;5.30;1.00
46490;DHT22;32204;49.160;8.580;2024-03-02T07:36:12;5.30;99.90
46490;DHT22;32204;49.160;8.580;2024-03-02T07:38:37;5.10;99.90
46490;DHT22;32204;49.160;8.580;2024-03-02T07:41:03;5.20;1.00
46490;DHT22;32204;49.160;8.580;2024-03-02T07:43:30;5.30;99.90
46490;DHT22;32204;49.160;8.580;2024-03-02T07:45:57;5.40;1.00
46490;DHT22;32204;49.160;8.580;2024-03-02T07:48:23;5.50;99.90
46490;DHT22;32204;49.160;8.580;2024-03-02T07:50:48;5.70;99.90
46490;DHT22;32204;49.160;8.580;2024-03-02T07:53:14;5.80;54.00
46490;DHT22;32204;49.160;8.580;2024-03-02T07:55:40;5.90;99.90
46490;DHT22;32204;49.160;8.580;2024-03-02T07:58:06;6.20;98.50
46490;DHT22;32204;49.160;8.580;2024-03-02T08:00:32;6.30;99.90
46490;DHT22;32204;49.160;8.580;2024-03-02T08:02:58;6.50;99.90
46490;DHT22;32204;49.160;8.580;2024-03-02T08:05:24;6.70;99.90
46490;DHT22;32204;49.160;8.580;2024-03-02T08:07:49;6.70;99.90
46490;DHT22;32204;49.160;8.580;2024-03-02T08:10:18;6.80;99.90
46490;DHT22;32204;49.160;8.580;2024-03-02T08:12:43;6.90;84.70
46490;DHT22;32204;49.160;8.580;2024-03-02T08:15:09;7.00;99.90
46490;DHT22;32204;49.160;8.580;2024-03-02T08:17:35;7.10;25.80
46490;DHT22;32204;49.160;8.580;2024-03-02T08:20:01;7.00;1.00
46490;DHT22;32204;49.160;8.580;2024-03-02T08:22:27;7.10;2.00
46490;DHT22;32204;49.160;8.580;2024-03-02T08:24:53;7.20;14.90
46490;DHT22;32204;49.160;8.580;2024-03-02T08:27:19;7.30;1.00
46490;DHT22;32204;49.160;8.580;2024-03-02T08:29:45;7.40;1.00
46490;DHT22;32204;49.160;8.580;2024-03-02T08:32:11;7.50;1.00
46490;DHT22;32204;49.160;8.580;2024-03-02T08:34:36;7.60;99.90
46490;DHT22;32204;49.160;8.580;2024-03-02T08:37:02;7.60;99.90
46490;DHT22;32204;49.160;8.580;2024-03-02T08:39:28;7.70;99.90
46490;DHT22;32204;49.160;8.580;2024-03-02T08:41:54;7.80;69.60
46490;DHT22;32204;49.160;8.580;2024-03-02T08:44:20;7.90;1.00
46490;DHT22;32204;49.160;8.580;2024-03-02T08:46:45;8.00;99.90
46490;DHT22;32204;49.160;8.580;2024-03-02T08:49:12;8.10;99.90
46490;DHT22;32204;49.160;8.580;2024-03-02T08:51:37;8.20;79.30
46490;DHT22;32204;49.160;8.580;2024-03-02T08:54:03;8.20;1.00
46490;DHT22;32204;49.160;8.580;2024-03-02T08:56:30;8.20;1.00
46490;DHT22;32204;49.160;8.580;2024-03-02T08:58:56;8.40;1.00
46490;DHT22;32204;49.160;8.580;2024-03-02T09:01:21;8.50;99.90
46490;DHT22;32204;49.160;8.580;2024-03-02T09:03:47;8.60;74.20
46490;DHT22;32204;49.160;8.580;2024-03-02T09:06:15;8.70;1.00
46490;DHT22;32204;49.160;8.580;2024-03-02T09:08:42;8.80;52.30
46490;DHT22;32204;49.160;8.580;2024-03-02T09:11:09;8.80;42.20
46490;DHT22;32204;49.160;8.580;2024-03-02T09:13:35;8.90;99.90
46490;DHT22;32204;49.160;8.580;2024-03-02T09:16:01;9.10;99.90
46490;DHT22;32204;49.160;8.580;2024-03-02T09:18:28;9.10;1.00
46490;DHT22;32204;49.160;8.580;2024-03-02T09:20:53;9.20;99.90
46490;DHT22;32204;49.160;8.580;2024-03-02T09:23:19;9.30;1.00
46490;DHT22;32204;49.160;8.580;2024-03-02T09:25:44;9.40;99.90
46490;DHT22;32204;49.160;8.580;2024-03-02T09:28:10;9.50;1.00
46490;DHT22;32204;49.160;8.580;2024-03-02T09:30:36;9.60;99.90
46490;DHT22;32204;49.160;8.580;2024-03-02T09:33:02;9.80;99.90
46490;DHT22;32204;49.160;8.580;2024-03-02T09:35:27;9.90;99.90
46490;DHT22;32204;49.160;8.580;2024-03-02T09:37:53;10.00;99.90
46490;DHT22;32204;49.160;8.580;2024-03-02T09:40:22;10.00;99.90
46490;DHT22;32204;49.160;8.580;2024-03-02T09:42:48;10.10;1.00
46490;DHT22;32204;49.160;8.580;2024-03-02T09:45:22;10.20;99.90
46490;DHT22;32204;49.160;8.580;2024-03-02T09:47:48;10.30;1.00
46490;DHT22;32204;49.160;8.580;2024-03-02T09:50:13;10.50;99.90
46490;DHT22;32204;49.160;8.580;2024-03-02T09:52:41;10.60;1.00
46490;DHT22;32204;49.160;8.580;2024-03-02T09:55:08;10.70;1.00
46490;DHT22;32204;49.160;8.580;2024-03-02T09:57:34;10.90;1.00
46490;DHT22;32204;49.160;8.580;2024-03-02T09:59:59;10.90;99.90
46490;DHT22;32204;49.160;8.580;2024-03-02T10:02:25;11.10;1.00
46490;DHT22;32204;49.160;8.580;2024-03-02T10:04:53;11.10;99.90
46490;DHT22;32204;49.160;8.580;2024-03-02T10:07:19;11.20;99.90
46490;DHT22;32204;49.160;8.580;2024-03-02T10:09:46;11.30;99.90
46490;DHT22;32204;49.160;8.580;2024-03-02T10:12:13;11.40;99.90
46490;DHT22;32204;49.160;8.580;2024-03-02T10:14:39;11.60;99.90
46490;DHT22;32204;49.160;8.580;2024-03-02T10:17:09;11.80;99.90
46490;DHT22;32204;49.160;8.580;2024-03-02T10:19:36;12.00;12.20
46490;DHT22;32204;49.160;8.580;2024-03-02T10:22:07;11.90;1.00
46490;DHT22;32204;49.160;8.580;2024-03-02T10:24:38;12.10;1.00
46490;DHT22;32204;49.160;8.580;2024-03-02T10:27:22;12.00;99.90
46490;DHT22;32204;49.160;8.580;2024-03-02T10:29:48;12.20;99.90
46490;DHT22;32204;49.160;8.580;2024-03-02T10:32:15;12.40;99.90
46490;DHT22;32204;49.160;8.580;2024-03-02T10:34:42;12.50;99.90
46490;DHT22;32204;49.160;8.580;2024-03-02T10:37:11;12.50;99.90
46490;DHT22;32204;49.160;8.580;2024-03-02T10:39:37;12.60;99.90
46490;DHT22;32204;49.160;8.580;2024-03-02T10:42:06;12.70;99.90
46490;DHT22;32204;49.160;8.580;2024-03-02T10:44:32;12.70;99.90
46490;DHT22;32204;49.160;8.580;2024-03-02T10:47:02;13.00;99.90
46490;DHT22;32204;49.160;8.580;2024-03-02T10:49:30;13.00;99.90
46490;DHT22;32204;49.160;8.580;2024-03-02T10:52:00;13.00;99.90
46490;DHT22;32204;49.160;8.580;2024-03-02T10:54:27;13.10;99.90
46490;DHT22;32204;49.160;8.580;2024-03-02T10:57:01;13.20;99.90
46490;DHT22;32204;49.160;8.580;2024-03-02T10:59:34;13.40;99.90
46490;DHT22;32204;49.160;8.580;2024-03-02T11:02:02;13.40;84.50
46490;DHT22;32204;49.160;8.580;2024-03-02T11:04:29;13.40;49.60
46490;DHT22;32204;49.160;8.580;2024-03-02T11:07:08;13.40;46.60
46490;DHT22;32204;49.160;8.580;2024-03-02T11:09:39;13.40;33.40
46490;DHT22;32204;49.160;8.580;2024-03-02T11:12:29;13.60;35.10
46490;DHT22;32204;49.160;8.580;2024-03-02T11:14:55;13.60;33.50
46490;DHT22;32204;49.160;8.580;2024-03-02T11:17:21;13.80;38.90
46490;DHT22;32204;49.160;8.580;2024-03-02T11:19:49;13.90;22.80
46490;DHT22;32204;49.160;8.580;2024-03-02T11:22:16;14.00;18.90
46490;DHT22;32204;49.160;8.580;2024-03-02T11:24:49;14.00;15.10
46490;DHT22;32204;49.160;8.580;2024-03-02T11:27:14;14.10;6.30
46490;DHT22;32204;49.160;8.580;2024-03-02T11:30:00;14.00;1.00
46490;DHT22;32204;49.160;8.580;2024-03-02T11:32:25;14.10;1.00
46490;DHT22;32204;49.160;8.580;2024-03-02T11:34:51;14.10;1.00
46490;DHT22;32204;49.160;8.580;2024-03-02T11:37:20;14.30;1.00
46490;DHT22;32204;49.160;8.580;2024-03-02T11:39:49;14.30;1.00
46490;DHT22;32204;49.160;8.580;2024-03-02T11:42:15;14.30;1.00
46490;DHT22;32204;49.160;8.580;2024-03-02T11:44:46;14.40;1.00
46490;DHT22;32204;49.160;8.580;2024-03-02T11:47:14;14.50;1.00
46490;DHT22;32204;49.160;8.580;2024-03-02T11:49:45;14.40;1.00
46490;DHT22;32204;49.160;8.580;2024-03-02T11:52:12;14.50;1.00
46490;DHT22;32204;49.160;8.580;2024-03-02T11:54:40;14.50;1.00
46490;DHT22;32204;49.160;8.580;2024-03-02T11:57:09;14.60;1.00
46490;DHT22;32204;49.160;8.580;2024-03-02T11:59:34;14.60;1.00
46490;DHT22;32204;49.160;8.580;2024-03-02T12:02:01;14.70;1.00
46490;DHT22;32204;49.160;8.580;2024-03-02T12:04:27;14.70;1.00
46490;DHT22;32204;49.160;8.580;2024-03-02T12:09:22;14.80;1.00
46490;DHT22;32204;49.160;8.580;2024-03-02T12:11:48;14.90;1.00
46490;DHT22;32204;49.160;8.580;2024-03-02T12:14:13;15.00;1.00
46490;DHT22;32204;49.160;8.580;2024-03-02T12:16:43;14.90;1.00
46490;DHT22;32204;49.160;8.580;2024-03-02T12:19:09;14.90;1.00
46490;DHT22;32204;49.160;8.580;2024-03-02T12:21:34;15.00;1.00
46490;DHT22;32204;49.160;8.580;2024-03-02T12:24:01;15.10;1.00
46490;DHT22;32204;49.160;8.580;2024-03-02T12:26:26;15.20;1.00
46490;DHT22;32204;49.160;8.580;2024-03-02T12:28:52;15.20;1.00
46490;DHT22;32204;49.160;8.580;2024-03-02T12:31:18;15.30;1.00
46490;DHT22;32204;49.160;8.580;2024-03-02T12:33:43;15.30;1.00
46490;DHT22;32204;49.160;8.580;2024-03-02T12:36:09;15.30;1.00
46490;DHT22;32204;49.160;8.580;2024-03-02T12:38:46;15.50;1.00
46490;DHT22;32204;49.160;8.580;2024-03-02T12:41:15;15.50;1.00
46490;DHT22;32204;49.160;8.580;2024-03-02T12:43:41;15.40;1.00
46490;DHT22;32204;49.160;8.580;2024-03-02T12:46:07;15.40;1.00
46490;DHT22;32204;49.160;8.580;2024-03-02T12:48:32;15.50;1.00
46490;DHT22;32204;49.160;8.580;2024-03-02T12:50:58;15.70;1.00
46490;DHT22;32204;49.160;8.580;2024-03-02T12:53:24;15.60;1.00
46490;DHT22;32204;49.160;8.580;2024-03-02T12:55:50;15.70;1.00
46490;DHT22;32204;49.160;8.580;2024-03-02T12:58:19;15.60;1.00
46490;DHT22;32204;49.160;8.580;2024-03-02T13:00:48;15.70;1.00
46490;DHT22;32204;49.160;8.580;2024-03-02T13:03:14;15.70;1.00
46490;DHT22;32204;49.160;8.580;2024-03-02T13:05:41;15.80;1.00
46490;DHT22;32204;49.160;8.580;2024-03-02T13:08:07;15.80;1.00
46490;DHT22;32204;49.160;8.580;2024-03-02T13:10:33;15.80;1.00
46490;DHT22;32204;49.160;8.580;2024-03-02T13:12:59;15.80;1.00
46490;DHT22;32204;49.160;8.580;2024-03-02T13:15:26;15.70;1.00
46490;DHT22;32204;49.160;8.580;2024-03-02T13:17:52;15.70;1.00
46490;DHT22;32204;49.160;8.580;2024-03-02T13:20:18;15.70;1.00
46490;DHT22;32204;49.160;8.580;2024-03-02T13:22:44;15.80;1.00
46490;DHT22;32204;49.160;8.580;2024-03-02T13:25:10;15.80;1.00
46490;DHT22;32204;49.160;8.580;2024-03-02T13:27:36;15.80;1.00
46490;DHT22;32204;49.160;8.580;2024-03-02T13:30:02;15.90;1.00
46490;DHT22;32204;49.160;8.580;2024-03-02T13:32:28;16.00;1.00
46490;DHT22;32204;49.160;8.580;2024-03-02T13:34:54;16.10;1.00
46490;DHT22;32204;49.160;8.580;2024-03-02T13:37:20;16.10;1.00
46490;DHT22;32204;49.160;8.580;2024-03-02T13:39:47;16.00;1.00
46490;DHT22;32204;49.160;8.580;2024-03-02T13:42:12;16.00;1.00
46490;DHT22;32204;49.160;8.580;2024-03-02T13:44:41;16.10;1.00
46490;DHT22;32204;49.160;8.580;2024-03-02T13:47:09;16.20;1.00
46490;DHT22;32204;49.160;8.580;2024-03-02T13:49:35;16.20;1.00
46490;DHT22;32204;49.160;8.580;2024-03-02T13:52:08;16.20;1.00
46490;DHT22;32204;49.160;8.580;2024-03-02T13:54:45;16.30;1.00
46490;DHT22;32204;49.160;8.580;2024-03-02T13:57:12;16.30;1.00
46490;DHT22;32204;49.160;8.580;2024-03-02T13:59:38;16.30;1.00
46490;DHT22;32204;49.160;8.580;2024-03-02T14:02:05;16.30;1.00
46490;DHT22;32204;49.160;8.580;2024-03-02T14:04:33;16.30;1.00
46490;DHT22;32204;49.160;8.580;2024-03-02T14:07:00;16.40;1.00
46490;DHT22;32204;49.160;8.580;2024-03-02T14:09:26;16.40;1.00
46490;DHT22;32204;49.160;8.580;2024-03-02T14:11:52;16.30;1.00
46490;DHT22;32204;49.160;8.580;2024-03-02T14:14:18;16.30;1.00
46490;DHT22;32204;49.160;8.580;2024-03-02T14:16:44;16.40;1.00
46490;DHT22;32204;49.160;8.580;2024-03-02T14:19:10;16.30;1.00
46490;DHT22;32204;49.160;8.580;2024-03-02T14:21:37;16.20;1.00
46490;DHT22;32204;49.160;8.580;2024-03-02T14:24:03;16.20;1.00
46490;DHT22;32204;49.160;8.580;2024-03-02T14:26:29;16.10;1.00
46490;DHT22;32204;49.160;8.580;2024-03-02T14:28:55;16.20;1.00
46490;DHT22;32204;49.160;8.580;2024-03-02T14:31:21;16.30;1.00
46490;DHT22;32204;49.160;8.580;2024-03-02T14:33:46;16.40;1.00
46490;DHT22;32204;49.160;8.580;2024-03-02T14:36:13;16.40;1.00
46490;DHT22;32204;49.160;8.580;2024-03-02T14:38:39;16.30;1.00
46490;DHT22;32204;49.160;8.580;2024-03-02T14:41:05;16.40;1.00
46490;DHT22;32204;49.160;8.580;2024-03-02T14:43:30;16.30;1.00
46490;DHT22;32204;49.160;8.580;2024-03-02T14:45:56;16.30;1.00
46490;DHT22;32204;49.160;8.580;2024-03-02T14:48:24;16.20;1.00
46490;DHT22;32204;49.160;8.580;2024-03-02T14:50:49;16.10;1.00
46490;DHT22;32204;49.160;8.580;2024-03-02T14:53:16;16.10;1.00
46490;DHT22;32204;49.160;8.580;2024-03-02T14:55:42;16.10;1.00
46490;DHT22;32204;49.160;8.580;2024-03-02T14:58:07;16.00;1.00
46490;DHT22;32204;49.160;8.580;2024-03-02T15:00:33;15.90;1.00
46490;DHT22;32204;49.160;8.580;2024-03-02T15:02:59;15.80;1.00
46490;DHT22;32204;49.160;8.580;2024-03-02T15:05:25;15.80;1.00
46490;DHT22;32204;49.160;8.580;2024-03-02T15:07:52;15.80;1.00
46490;DHT22;32204;49.160;8.580;2024-03-02T15:10:19;15.80;1.00
46490;DHT22;32204;49.160;8.580;2024-03-02T15:12:45;15.70;1.00
46490;DHT22;32204;49.160;8.580;2024-03-02T15:15:10;15.70;1.00
46490;DHT22;32204;49.160;8.580;2024-03-02T15:17:37;15.60;1.00
46490;DHT22;32204;49.160;8.580;2024-03-02T15:20:03;15.50;1.00
46490;DHT22;32204;49.160;8.580;2024-03-02T15:22:30;15.40;1.00
46490;DHT22;32204;49.160;8.580;2024-03-02T15:24:55;15.40;1.00
46490;DHT22;32204;49.160;8.580;2024-03-02T15:27:21;15.30;1.00
46490;DHT22;32204;49.160;8.580;2024-03-02T15:29:47;15.30;1.00
46490;DHT22;32204;49.160;8.580;2024-03-02T15:32:15;15.30;5.20
46490;DHT22;32204;49.160;8.580;2024-03-02T15:34:41;15.30;1.00
46490;DHT22;32204;49.160;8.580;2024-03-02T15:37:08;15.20;1.00
46490;DHT22;32204;49.160;8.580;2024-03-02T15:39:34;15.20;1.00
46490;DHT22;32204;49.160;8.580;2024-03-02T15:41:59;15.10;1.00
46490;DHT22;32204;49.160;8.580;2024-03-02T15:44:25;15.10;1.00
46490;DHT22;32204;49.160;8.580;2024-03-02T15:46:51;15.00;1.00
46490;DHT22;32204;49.160;8.580;2024-03-02T15:49:16;15.00;1.00